Hauptseite
METAR-TAF:

METAR-TAF

Flughäfen :

Flughafen Budapest Liszt Ferenc

Budapest, Ungarn

Breite: 47-26N, Länge: 019-16E, Höhe: 151 m

Beobachtung

Neuester Wetterbericht von vor 22 Minuten, um 05:30 UTC
Wind 4 kt aus Nord
Temperatur 20°C
Luftfeuchtigkeit 88%
Luftdruck 1017 hPa
Sichtweite 10 km oder mehr
keine Wolken unter 1500 m und keine Kumulonimbus oder Gewitterwolken

METAR: LHBP 170530Z 35004KT CAVOK 20/18 Q1017 NOSIG

Zeit: 07:52 (05:52 UTC)

Prognose

Neuester Wetterbericht von vor 37 Minuten, um 05:15 UTC
Gültige Prognose vom 17 um 06 UTC bis 18 um 06 UTC
Wind 3 kt aus unterschiedlichen Richtungen
Sichtweite 10 km oder mehr
keine Wolken unter 1500 m und keine Kumulonimbus oder Gewitterwolken
Zeitweise
vom 17 um 13 UTC bis 17 um 18 UTC
Wind 6 kt aus Süd/Südwest

TAF: LHBP 170515Z 1706/1806 VRB03KT CAVOK TEMPO 1713/1718 21006KT

Wetterbeobachtungen und Prognosen von mehr als 4000 Flughäfen (METAR und TAF Bericht).

Die verfügbaren Stationen werden durch gelbe und rote Markierungen auf der Karte dargestellt.

Führen Sie die Maus auf sie, um den Namen der Station zu sehen.

Darauf klicken, um die Beobachtung von Wetterbeobachtungen und Prognosen zu sehen.

Um die Karte zu ändern : klicken Sie auf den grünen Tasten mit einem schwarzen Kreuz Zum Vergrößern, auf den grünen Button mit einem Gedankenstrich zu verkleinern, oder auf die grünen Pfeile für benachbarte Karten.


METAR-TAF: